Yangcheng, China
Current Conditions -  °F | °C
As of 3:00 PM on Friday 24 Oct 2014 (Local Time) from ZHCC Reporting Station
Haze Haze  
Wind Chill: 77°   Ceiling: Unl
Heat Index: 79°   Visibility: 1.8mi
Dew Point: 59°   Wind: 7mph
Humidity: 54%   Direction: 180°S
Pressure: 29.88"   Gusts: NA
Location:  35.48°N, 112.4°E
Report Text: ZHCC 240700Z 18003MPS 140V230 3000 HZ NSC 25/15 Q1012 NOSIG
Loading
Personal Weather Stations






























Interactive Weather Map
Tropical Storm Tracking
New forecast layout! Learn more

10-Day Weather Forecast

Advertisements
Track Severe Weather on mobile